createdAt,value
2017-11-29T00:00:04.798Z,69.8
2017-11-29T00:15:05.353Z,70.2
2017-11-29T00:30:04.512Z,70.5
2017-11-29T00:45:05.414Z,71.3
2017-11-29T01:00:07.915Z,71.1
2017-11-29T01:15:04.830Z,71.4
2017-11-29T01:30:04.450Z,72
2017-11-29T01:45:04.836Z,71.8
2017-11-29T02:02:16.071Z,71.7
2017-11-29T02:15:04.951Z,71.9
2017-11-29T02:30:04.883Z,72.2
2017-11-29T02:45:04.276Z,71.2
2017-11-29T03:00:04.681Z,71.2
2017-11-29T03:15:05.172Z,71.3
2017-11-29T03:30:04.793Z,70.7
2017-11-29T03:45:05.146Z,71.6
2017-11-29T04:00:04.906Z,71.2
2017-11-29T04:15:05.466Z,72.1
2017-11-29T04:30:05.146Z,72.4
2017-11-29T04:45:05.115Z,71.7
2017-11-29T05:00:05.686Z,72.3
2017-11-29T05:15:04.544Z,72.4
2017-11-29T05:30:04.425Z,72.2
2017-11-29T05:45:08.039Z,71.7
2017-11-29T06:00:05.462Z,72.3
2017-11-29T06:15:05.936Z,72.7
2017-11-29T06:30:05.680Z,72.1
2017-11-29T06:45:05.183Z,72.3
2017-11-29T07:00:05.715Z,72.2
2017-11-29T07:15:05.681Z,71.9
2017-11-29T07:30:04.409Z,71.7
2017-11-29T07:45:04.769Z,71.3
2017-11-29T08:00:04.679Z,70.5
2017-11-29T08:15:04.690Z,71.8
2017-11-29T08:30:04.792Z,70.5
2017-11-29T08:45:05.189Z,70.1
2017-11-29T09:15:11.837Z,68.1
2017-11-29T09:30:04.944Z,68.4
2017-11-29T09:45:05.837Z,68
2017-11-29T10:00:05.814Z,67.5
2017-11-29T10:15:04.691Z,67.5
2017-11-29T10:30:04.861Z,67
2017-11-29T10:45:07.382Z,66.6
2017-11-29T11:00:04.727Z,65.7
2017-11-29T11:15:04.647Z,63.9
2017-11-29T11:30:06.335Z,64.8
2017-11-29T11:45:20.410Z,64.2
2017-11-29T12:00:04.770Z,63.1
2017-11-29T12:15:05.186Z,64
2017-11-29T12:30:07.374Z,62.5
2017-11-29T12:45:05.765Z,63.1
2017-11-29T13:00:04.664Z,62.5
2017-11-29T13:15:05.066Z,63.1
2017-11-29T13:30:11.311Z,63.1
2017-11-29T13:45:06.242Z,63.3
2017-11-29T14:00:05.116Z,65.9
2017-11-29T14:15:20.092Z,65.5
2017-11-29T14:30:08.304Z,66
2017-11-29T14:45:08.308Z,66.1
2017-11-29T15:00:06.318Z,65.5
2017-11-29T15:15:05.802Z,65.6
2017-11-29T15:30:04.400Z,66.1
2017-11-29T15:45:07.923Z,65.6
2017-11-29T16:00:04.840Z,66.2
2017-11-29T16:15:04.750Z,67.1
2017-11-29T16:30:05.438Z,68.2
2017-11-29T16:45:04.882Z,69.2
2017-11-29T17:00:05.371Z,68.7
2017-11-29T17:15:04.913Z,68.4
2017-11-29T17:30:04.522Z,67.6
2017-11-29T17:45:05.519Z,66.7
2017-11-29T18:00:07.994Z,66.4
2017-11-29T18:15:11.005Z,66.3
2017-11-29T18:30:07.525Z,66.4
2017-11-29T18:45:05.096Z,67
2017-11-29T19:00:04.940Z,65.4
2017-11-29T19:15:04.340Z,65.2
2017-11-29T19:30:04.441Z,64.8
2017-11-29T19:45:04.867Z,64.5
2017-11-29T20:00:05.382Z,64.8
2017-11-29T20:15:05.389Z,64.6
2017-11-29T20:30:05.849Z,63
2017-11-29T20:45:06.027Z,64.6
2017-11-29T21:15:06.179Z,63.8
2017-11-29T21:30:08.113Z,64
2017-11-29T21:45:05.298Z,63.8
2017-11-29T22:00:05.250Z,63.8
2017-11-29T22:15:05.694Z,64
2017-11-29T22:30:04.797Z,63.9
2017-11-29T22:45:05.641Z,63.6
2017-11-29T23:00:04.869Z,64.3
2017-11-29T23:15:04.970Z,64.6
2017-11-29T23:30:04.780Z,65.5
2017-11-29T23:45:04.829Z,65.1
